createdAt,value
2018-02-09T00:01:28.756Z,3.90
2018-02-09T00:03:57.288Z,3.90
2018-02-09T00:06:25.728Z,3.90
2018-02-09T00:08:54.301Z,3.90
2018-02-09T00:11:22.784Z,3.80
2018-02-09T00:13:52.487Z,3.60
2018-02-09T00:16:21.889Z,3.60
2018-02-09T00:18:50.380Z,3.50
2018-02-09T00:21:19.780Z,3.60
2018-02-09T00:23:48.257Z,3.50
2018-02-09T00:26:16.839Z,3.50
2018-02-09T00:28:45.208Z,3.40
2018-02-09T00:31:28.055Z,3.40
2018-02-09T00:33:56.528Z,3.40
2018-02-09T00:36:41.330Z,3.40
2018-02-09T00:39:10.496Z,3.50
2018-02-09T00:41:52.713Z,3.50
2018-02-09T00:44:23.512Z,3.50
2018-02-09T00:47:04.741Z,3.50
2018-02-09T00:49:33.280Z,3.50
2018-02-09T00:52:01.671Z,3.60
2018-02-09T00:54:34.945Z,3.70
2018-02-09T00:57:05.164Z,3.80
2018-02-09T00:59:33.546Z,3.90
2018-02-09T01:02:02.031Z,4.00
2018-02-09T01:04:30.504Z,3.90
2018-02-09T01:06:58.959Z,3.90
2018-02-09T01:09:28.797Z,3.80
2018-02-09T01:11:57.339Z,3.80
2018-02-09T01:14:26.586Z,3.70
2018-02-09T01:16:55.466Z,3.70
2018-02-09T01:19:30.501Z,3.60
2018-02-09T01:21:59.153Z,3.40
2018-02-09T01:24:28.385Z,3.30
2018-02-09T01:26:57.990Z,3.30
2018-02-09T01:29:40.146Z,3.40
2018-02-09T01:32:08.674Z,3.40
2018-02-09T01:34:37.155Z,3.40
2018-02-09T01:37:05.645Z,3.30
2018-02-09T01:39:33.972Z,3.40
2018-02-09T01:42:02.545Z,3.30
2018-02-09T01:44:31.500Z,3.20
2018-02-09T01:46:59.972Z,3.20
2018-02-09T01:49:28.451Z,3.10
2018-02-09T01:51:56.834Z,3.00
2018-02-09T01:54:25.210Z,3.10
2018-02-09T01:56:54.732Z,3.20
2018-02-09T01:59:23.136Z,3.20
2018-02-09T02:01:51.679Z,3.20
2018-02-09T02:04:20.157Z,3.20
2018-02-09T02:06:48.839Z,3.30
2018-02-09T02:09:17.479Z,3.20
2018-02-09T02:11:53.900Z,3.20
2018-02-09T02:14:22.473Z,3.10
2018-02-09T02:16:51.161Z,3.10
2018-02-09T02:19:25.679Z,3.10
2018-02-09T02:22:01.192Z,3.10
2018-02-09T02:24:30.344Z,3.10
2018-02-09T02:27:08.433Z,3.10
2018-02-09T02:29:36.911Z,3.20
2018-02-09T02:32:05.491Z,3.40
2018-02-09T02:34:34.077Z,3.40
2018-02-09T02:37:05.013Z,3.40
2018-02-09T02:39:34.316Z,3.50
2018-02-09T02:42:14.874Z,3.60
2018-02-09T02:44:43.284Z,3.70
2018-02-09T02:47:11.850Z,4.00
2018-02-09T02:49:55.472Z,4.20
2018-02-09T02:52:23.958Z,4.30
2018-02-09T02:54:55.437Z,4.50
2018-02-09T02:57:26.244Z,4.50
2018-02-09T02:59:54.593Z,4.60
2018-02-09T03:02:23.921Z,4.80
2018-02-09T03:04:52.398Z,4.80
2018-02-09T03:07:47.084Z,4.90
2018-02-09T03:10:15.624Z,5.10
2018-02-09T03:12:44.875Z,5.20
2018-02-09T03:15:13.356Z,5.20
2018-02-09T03:17:41.838Z,5.30
2018-02-09T03:20:21.477Z,5.30
2018-02-09T03:22:49.964Z,5.30
2018-02-09T03:25:18.438Z,5.30
2018-02-09T03:27:47.027Z,5.20
2018-02-09T03:30:15.613Z,5.10
2018-02-09T03:32:50.131Z,5.20
2018-02-09T03:35:32.435Z,5.20
2018-02-09T03:38:00.981Z,5.10
2018-02-09T03:40:33.318Z,5.10
2018-02-09T03:43:01.809Z,5.10
2018-02-09T03:45:31.297Z,5.00
2018-02-09T03:47:59.762Z,5.00
2018-02-09T03:50:28.232Z,5.00
2018-02-09T03:53:04.043Z,4.90
2018-02-09T03:55:32.567Z,4.90
2018-02-09T03:58:02.070Z,4.90
2018-02-09T04:00:32.503Z,4.80
2018-02-09T04:03:00.965Z,4.80
2018-02-09T04:05:29.460Z,4.90
2018-02-09T04:07:57.945Z,5.00
2018-02-09T04:10:26.432Z,5.00
2018-02-09T04:12:55.010Z,5.10
2018-02-09T04:15:23.564Z,5.20
2018-02-09T04:17:52.891Z,5.20
2018-02-09T04:20:21.367Z,5.20
2018-02-09T04:23:03.481Z,5.10
2018-02-09T04:25:31.951Z,5.20
2018-02-09T04:28:00.465Z,5.30
2018-02-09T04:30:29.018Z,5.30
2018-02-09T04:32:57.500Z,5.20
2018-02-09T04:35:26.084Z,5.30
2018-02-09T04:37:55.180Z,5.30
2018-02-09T04:40:23.856Z,5.40
2018-02-09T04:42:52.341Z,5.50
2018-02-09T04:45:20.820Z,5.50
2018-02-09T04:47:50.322Z,5.50
2018-02-09T04:50:18.726Z,5.60
2018-02-09T04:52:47.667Z,5.70
2018-02-09T04:55:16.799Z,5.80
2018-02-09T04:57:46.093Z,5.70
2018-02-09T05:00:14.568Z,5.80
2018-02-09T05:02:43.052Z,5.90
2018-02-09T05:05:11.632Z,5.90
2018-02-09T05:07:41.550Z,5.80
2018-02-09T05:10:28.995Z,5.80
2018-02-09T05:12:57.584Z,5.90
2018-02-09T05:15:26.137Z,5.90
2018-02-09T05:17:54.537Z,5.90
2018-02-09T05:20:22.928Z,5.90
2018-02-09T05:23:06.025Z,5.80
2018-02-09T05:25:34.498Z,5.80
2018-02-09T05:28:02.986Z,5.80
2018-02-09T05:30:31.607Z,5.80
2018-02-09T05:33:15.400Z,5.80
2018-02-09T05:35:45.461Z,5.70
2018-02-09T05:38:14.004Z,5.70
2018-02-09T05:40:46.378Z,5.60
2018-02-09T05:43:14.962Z,5.60
2018-02-09T05:45:43.383Z,5.70
2018-02-09T05:48:11.853Z,5.70
2018-02-09T05:50:41.041Z,5.70
2018-02-09T05:53:09.415Z,5.60
2018-02-09T05:55:38.703Z,5.50
2018-02-09T05:58:08.147Z,5.40
2018-02-09T06:00:38.213Z,5.00
2018-02-09T06:03:06.695Z,5.00
2018-02-09T06:05:35.056Z,5.00
2018-02-09T06:08:14.950Z,4.90
2018-02-09T06:10:43.618Z,4.90
2018-02-09T06:13:12.399Z,5.00
2018-02-09T06:15:44.361Z,5.00
2018-02-09T06:18:12.700Z,5.10
2018-02-09T06:20:42.984Z,5.10
2018-02-09T06:23:13.780Z,5.10
2018-02-09T06:25:42.685Z,5.30
2018-02-09T06:28:17.516Z,5.20
2018-02-09T06:30:48.478Z,5.20
2018-02-09T06:33:17.048Z,5.10
2018-02-09T06:35:58.670Z,5.30
2018-02-09T06:38:28.629Z,5.40
2018-02-09T06:40:57.239Z,5.30
2018-02-09T06:43:25.709Z,5.20
2018-02-09T06:45:54.291Z,5.30
2018-02-09T06:48:22.610Z,5.40
2018-02-09T06:50:51.967Z,5.60
2018-02-09T06:53:20.453Z,5.70
2018-02-09T06:55:48.882Z,5.70
2018-02-09T06:58:27.242Z,5.60
2018-02-09T07:00:55.717Z,5.60
2018-02-09T07:03:24.196Z,5.60
2018-02-09T07:05:52.782Z,5.50
2018-02-09T07:08:21.204Z,5.60
2018-02-09T07:10:49.759Z,5.60
2018-02-09T07:13:18.579Z,5.70
2018-02-09T07:15:47.262Z,5.90
2018-02-09T07:18:20.634Z,6.00
2018-02-09T07:20:49.150Z,6.10
2018-02-09T07:23:18.402Z,7.10
2018-02-09T07:25:46.877Z,7.10
2018-02-09T07:28:15.418Z,7.50
2018-02-09T07:30:44.612Z,7.80
2018-02-09T07:33:13.442Z,7.80
2018-02-09T07:35:43.975Z,8.30
2018-02-09T07:38:12.558Z,8.30
2018-02-09T07:40:40.914Z,8.40
2018-02-09T07:43:10.018Z,8.80
2018-02-09T07:45:45.184Z,8.80
2018-02-09T07:48:13.671Z,9.20
2018-02-09T07:50:42.129Z,9.50
2018-02-09T07:53:10.715Z,9.90
2018-02-09T07:55:39.150Z,10.20
2018-02-09T07:58:09.313Z,10.80
2018-02-09T08:00:45.305Z,10.80
2018-02-09T08:03:13.709Z,11.10
2018-02-09T08:05:43.044Z,11.50
2018-02-09T08:08:11.633Z,11.50
2018-02-09T08:10:40.178Z,12.10
2018-02-09T08:13:09.295Z,13.00
2018-02-09T08:15:37.793Z,13.00
2018-02-09T08:18:06.185Z,13.10
2018-02-09T08:20:34.647Z,12.40
2018-02-09T08:23:03.055Z,12.60
2018-02-09T08:25:31.509Z,13.40
2018-02-09T08:27:59.989Z,13.80
2018-02-09T08:30:28.613Z,14.10
2018-02-09T08:32:57.488Z,13.90
2018-02-09T08:35:26.104Z,14.20
2018-02-09T08:37:55.208Z,14.20
2018-02-09T08:40:33.759Z,14.30
2018-02-09T08:43:02.178Z,14.30
2018-02-09T08:45:30.738Z,14.50
2018-02-09T08:47:59.202Z,14.40
2018-02-09T08:50:28.004Z,14.70
2018-02-09T08:52:56.479Z,15.00
2018-02-09T08:55:25.006Z,15.00
2018-02-09T08:57:54.359Z,15.50
2018-02-09T09:00:22.935Z,15.40
2018-02-09T09:02:51.417Z,15.40
2018-02-09T09:05:21.814Z,15.80
2018-02-09T09:07:50.327Z,16.30
2018-02-09T09:10:19.830Z,16.20
2018-02-09T09:12:48.311Z,16.60
2018-02-09T09:15:16.847Z,16.10
2018-02-09T09:17:46.016Z,16.30
2018-02-09T09:20:14.492Z,16.30
2018-02-09T09:22:42.983Z,16.50
2018-02-09T09:25:11.433Z,16.50
2018-02-09T09:27:39.914Z,16.00
2018-02-09T09:30:10.242Z,16.10
2018-02-09T09:32:39.740Z,16.20
2018-02-09T09:35:08.225Z,14.70
2018-02-09T09:37:40.653Z,14.90
2018-02-09T09:40:09.996Z,15.90
2018-02-09T09:42:38.479Z,15.80
2018-02-09T09:45:07.273Z,16.70
2018-02-09T09:47:35.848Z,17.50
2018-02-09T09:50:04.429Z,17.80
2018-02-09T09:52:46.170Z,18.40
2018-02-09T09:55:15.224Z,18.40
2018-02-09T09:57:43.630Z,18.90
2018-02-09T10:00:13.068Z,19.20
2018-02-09T10:02:42.335Z,18.90
2018-02-09T10:05:17.851Z,19.30
2018-02-09T10:07:46.275Z,19.20
2018-02-09T10:10:15.522Z,20.00
2018-02-09T10:12:44.969Z,20.00
2018-02-09T10:15:13.457Z,20.00
2018-02-09T10:17:42.027Z,18.50
2018-02-09T10:20:10.782Z,19.00
2018-02-09T10:22:39.198Z,19.20
2018-02-09T10:25:09.174Z,20.50
2018-02-09T10:27:37.553Z,20.50
2018-02-09T10:30:06.031Z,20.50
2018-02-09T10:32:34.517Z,20.00
2018-02-09T10:35:03.153Z,20.00
2018-02-09T10:37:31.679Z,20.20
2018-02-09T10:40:00.094Z,20.40
2018-02-09T10:42:28.597Z,20.50
2018-02-09T10:44:58.150Z,17.90
2018-02-09T10:47:26.711Z,17.90
2018-02-09T10:49:55.078Z,16.30
2018-02-09T10:52:23.901Z,17.90
2018-02-09T10:54:52.491Z,19.00
2018-02-09T10:57:27.001Z,19.00
2018-02-09T10:59:55.440Z,18.60
2018-02-09T11:02:25.224Z,19.00
2018-02-09T11:04:53.523Z,19.00
2018-02-09T11:07:25.278Z,18.80
2018-02-09T11:09:57.096Z,19.00
2018-02-09T11:12:27.417Z,19.00
2018-02-09T11:15:03.178Z,20.00
2018-02-09T11:17:31.589Z,20.20
2018-02-09T11:19:59.956Z,18.40
2018-02-09T11:22:28.466Z,19.30
2018-02-09T11:24:56.981Z,19.80
2018-02-09T11:27:38.675Z,19.20
2018-02-09T11:30:07.100Z,19.90
2018-02-09T11:32:35.637Z,20.40
2018-02-09T11:35:07.803Z,20.60
2018-02-09T11:37:37.507Z,21.10
2018-02-09T11:40:05.971Z,20.50
2018-02-09T11:42:34.578Z,20.00
2018-02-09T11:45:09.308Z,20.40
2018-02-09T11:47:39.878Z,20.20
2018-02-09T11:50:15.990Z,19.30
2018-02-09T11:52:44.484Z,18.60
2018-02-09T11:55:13.061Z,18.10
2018-02-09T11:57:41.536Z,18.00
2018-02-09T12:00:10.029Z,18.10
2018-02-09T12:02:38.502Z,18.80
2018-02-09T12:05:06.894Z,19.20
2018-02-09T12:07:38.686Z,19.20
2018-02-09T12:10:07.225Z,18.60
2018-02-09T12:12:35.907Z,18.70
2018-02-09T12:15:04.514Z,18.70
2018-02-09T12:17:33.073Z,17.60
2018-02-09T12:20:01.459Z,15.80
2018-02-09T12:22:30.544Z,16.40
2018-02-09T12:25:12.343Z,17.20
2018-02-09T12:27:40.859Z,17.30
2018-02-09T12:30:09.311Z,18.00
2018-02-09T12:32:38.552Z,18.60
2018-02-09T12:35:06.918Z,18.60
2018-02-09T12:37:36.840Z,17.60
2018-02-09T12:40:06.216Z,17.70
2018-02-09T12:42:37.060Z,17.70
2018-02-09T12:45:17.390Z,17.50
2018-02-09T12:47:45.876Z,17.40
2018-02-09T12:50:14.467Z,16.70
2018-02-09T12:52:42.878Z,17.00
2018-02-09T12:55:11.325Z,16.30
2018-02-09T12:57:39.792Z,16.40
2018-02-09T13:00:16.213Z,16.60
2018-02-09T13:02:44.697Z,16.50
2018-02-09T13:05:13.874Z,16.20
2018-02-09T13:07:55.948Z,16.20
2018-02-09T13:10:24.520Z,16.30
2018-02-09T13:13:04.777Z,16.80
2018-02-09T13:15:33.195Z,17.80
2018-02-09T13:18:01.734Z,16.90
2018-02-09T13:20:30.320Z,16.50
2018-02-09T13:23:10.578Z,16.60
2018-02-09T13:25:38.897Z,16.50
2018-02-09T13:28:08.818Z,16.10
2018-02-09T13:30:44.619Z,16.10
2018-02-09T13:33:31.077Z,16.50
2018-02-09T13:36:00.169Z,17.00
2018-02-09T13:38:29.838Z,16.90
2018-02-09T13:40:58.245Z,16.70
2018-02-09T13:43:26.699Z,15.80
2018-02-09T13:46:02.243Z,16.00
2018-02-09T13:48:30.764Z,15.90
2018-02-09T13:51:00.086Z,15.60
2018-02-09T13:53:40.518Z,15.60
2018-02-09T13:56:17.405Z,15.60
2018-02-09T13:58:50.662Z,14.80
2018-02-09T14:01:19.126Z,14.90
2018-02-09T14:03:48.637Z,15.20
2018-02-09T14:06:17.933Z,14.60
2018-02-09T14:08:46.575Z,13.50
2018-02-09T14:11:15.922Z,14.30
2018-02-09T14:13:46.657Z,14.30
2018-02-09T14:16:15.140Z,14.40
2018-02-09T14:18:57.784Z,13.50
2018-02-09T14:21:26.978Z,13.90
2018-02-09T14:23:55.458Z,13.80
2018-02-09T14:26:39.191Z,13.80
2018-02-09T14:29:11.642Z,13.30
2018-02-09T14:31:40.832Z,13.40
2018-02-09T14:34:09.493Z,13.30
2018-02-09T14:36:38.716Z,12.80
2018-02-09T14:39:07.303Z,12.80
2018-02-09T14:41:35.781Z,12.90
2018-02-09T14:44:04.366Z,12.70
2018-02-09T14:46:32.746Z,12.10
2018-02-09T14:49:02.174Z,12.10
2018-02-09T14:51:30.570Z,12.10
2018-02-09T14:54:03.303Z,12.10
2018-02-09T14:56:31.886Z,12.30
2018-02-09T14:59:00.469Z,12.40
2018-02-09T15:01:28.766Z,12.30
2018-02-09T15:04:00.358Z,12.30
2018-02-09T15:06:29.701Z,12.60
2018-02-09T15:08:58.802Z,12.60
2018-02-09T15:11:27.267Z,12.60
2018-02-09T15:13:55.757Z,12.60
2018-02-09T15:16:24.606Z,12.40
2018-02-09T15:18:53.233Z,12.30
2018-02-09T15:21:21.712Z,12.20
2018-02-09T15:23:50.193Z,12.30
2018-02-09T15:26:19.130Z,12.30
2018-02-09T15:28:48.401Z,12.20
2018-02-09T15:31:17.180Z,12.20
2018-02-09T15:33:45.652Z,12.00
2018-02-09T15:36:14.442Z,12.00
2018-02-09T15:38:55.471Z,12.20
2018-02-09T15:41:24.105Z,12.40
2018-02-09T15:43:52.633Z,12.40
2018-02-09T15:46:22.601Z,12.30
2018-02-09T15:48:50.976Z,12.30
2018-02-09T15:51:25.607Z,12.40
2018-02-09T15:53:54.088Z,12.50
2018-02-09T15:56:22.567Z,12.50
2018-02-09T15:58:51.249Z,12.60
2018-02-09T16:01:19.735Z,12.60
2018-02-09T16:03:48.975Z,12.80
2018-02-09T16:06:17.612Z,13.10
2018-02-09T16:08:46.094Z,13.40
2018-02-09T16:11:14.522Z,13.50
2018-02-09T16:13:48.120Z,13.70
2018-02-09T16:16:23.314Z,13.90
2018-02-09T16:18:51.843Z,13.90
2018-02-09T16:21:20.316Z,14.20
2018-02-09T16:23:49.523Z,14.70
2018-02-09T16:26:17.985Z,14.70
2018-02-09T16:28:48.617Z,14.60
2018-02-09T16:31:17.070Z,14.30
2018-02-09T16:33:45.468Z,13.60
2018-02-09T16:36:22.058Z,13.30
2018-02-09T16:38:53.192Z,12.60
2018-02-09T16:41:22.971Z,12.60
2018-02-09T16:43:51.600Z,11.90
2018-02-09T16:46:21.888Z,11.70
2018-02-09T16:48:50.426Z,11.50
2018-02-09T16:51:19.759Z,11.20
2018-02-09T16:53:50.511Z,11.20
2018-02-09T16:56:19.898Z,10.70
2018-02-09T16:58:58.812Z,10.70
2018-02-09T17:01:28.301Z,10.50
2018-02-09T17:03:57.744Z,10.10
2018-02-09T17:06:33.390Z,10.10
2018-02-09T17:09:02.847Z,10.00
2018-02-09T17:11:32.860Z,10.00
2018-02-09T17:14:01.703Z,10.00
2018-02-09T17:16:43.498Z,10.00
2018-02-09T17:19:13.983Z,10.00
2018-02-09T17:21:42.710Z,10.10
2018-02-09T17:24:11.395Z,9.90
2018-02-09T17:26:41.585Z,9.90
2018-02-09T17:29:10.299Z,9.90
2018-02-09T17:31:38.913Z,9.80
2018-02-09T17:34:07.353Z,9.70
2018-02-09T17:36:35.774Z,9.70
2018-02-09T17:39:04.224Z,9.60
2018-02-09T17:41:32.690Z,9.60
2018-02-09T17:44:01.282Z,9.60
2018-02-09T17:46:29.771Z,9.50
2018-02-09T17:49:18.818Z,9.50
2018-02-09T17:51:47.302Z,9.50
2018-02-09T17:54:15.779Z,9.40
2018-02-09T17:56:46.926Z,9.50
2018-02-09T17:59:19.809Z,9.50
2018-02-09T18:01:58.464Z,9.40
2018-02-09T18:04:27.832Z,9.30
2018-02-09T18:06:56.239Z,9.30
2018-02-09T18:09:25.098Z,9.20
2018-02-09T18:11:53.577Z,9.20
2018-02-09T18:14:22.271Z,9.20
2018-02-09T18:16:50.809Z,9.20
2018-02-09T18:19:20.184Z,9.20
2018-02-09T18:21:48.607Z,9.20
2018-02-09T18:24:17.759Z,9.10
2018-02-09T18:26:52.600Z,9.10
2018-02-09T18:29:22.198Z,9.00
2018-02-09T18:31:50.855Z,9.00
2018-02-09T18:34:20.046Z,8.90
2018-02-09T18:36:48.637Z,8.90
2018-02-09T18:39:17.115Z,9.00
2018-02-09T18:41:45.691Z,8.90
2018-02-09T18:44:22.215Z,8.80
2018-02-09T18:46:50.773Z,8.70
2018-02-09T18:49:19.146Z,8.60
2018-02-09T18:51:47.820Z,8.50
2018-02-09T18:54:16.337Z,8.30
2018-02-09T18:56:46.414Z,8.40
2018-02-09T18:59:14.890Z,8.30
2018-02-09T19:01:43.468Z,8.40
2018-02-09T19:04:14.269Z,8.40
2018-02-09T19:06:43.515Z,8.40
2018-02-09T19:09:12.133Z,8.40
2018-02-09T19:11:41.458Z,8.40
2018-02-09T19:14:10.003Z,8.30
2018-02-09T19:16:38.500Z,8.20
2018-02-09T19:19:06.975Z,8.20
2018-02-09T19:21:35.633Z,8.10
2018-02-09T19:24:04.058Z,8.10
2018-02-09T19:26:33.305Z,8.20
2018-02-09T19:29:01.933Z,8.20
2018-02-09T19:31:31.251Z,8.30
2018-02-09T19:34:13.593Z,8.20
2018-02-09T19:36:42.077Z,8.20
2018-02-09T19:39:24.511Z,8.10
2018-02-09T19:41:53.055Z,8.10
2018-02-09T19:44:21.445Z,8.00
2018-02-09T19:46:49.865Z,7.90
2018-02-09T19:49:18.296Z,7.80
2018-02-09T19:51:46.782Z,7.80
2018-02-09T19:54:18.851Z,7.80
2018-02-09T19:56:47.427Z,7.70
2018-02-09T19:59:16.133Z,7.60
2018-02-09T20:01:44.693Z,7.60
2018-02-09T20:04:13.434Z,7.50
2018-02-09T20:06:42.888Z,7.30
2018-02-09T20:09:11.747Z,7.30
2018-02-09T20:11:40.490Z,7.20
2018-02-09T20:14:09.990Z,7.10
2018-02-09T20:16:43.870Z,7.10
2018-02-09T20:19:12.661Z,7.10
2018-02-09T20:21:41.160Z,7.00
2018-02-09T20:24:10.972Z,7.00
2018-02-09T20:26:48.441Z,7.00
2018-02-09T20:29:29.164Z,6.90
2018-02-09T20:31:59.237Z,6.90
2018-02-09T20:34:33.812Z,6.90
2018-02-09T20:37:02.999Z,6.90
2018-02-09T20:39:34.593Z,6.90
2018-02-09T20:42:04.040Z,7.00
2018-02-09T20:44:41.901Z,7.00
2018-02-09T20:47:12.185Z,6.90
2018-02-09T20:49:40.840Z,6.90
2018-02-09T20:52:10.832Z,7.00
2018-02-09T20:54:53.237Z,7.00
2018-02-09T20:57:21.877Z,6.90
2018-02-09T20:59:51.023Z,6.70
2018-02-09T21:02:23.953Z,6.60
2018-02-09T21:05:04.783Z,6.60
2018-02-09T21:07:34.652Z,6.60
2018-02-09T21:10:04.112Z,6.40
2018-02-09T21:12:47.398Z,6.40
2018-02-09T21:15:16.328Z,6.50
2018-02-09T21:17:44.893Z,6.50
2018-02-09T21:20:14.487Z,6.50
2018-02-09T21:22:43.872Z,6.50
2018-02-09T21:25:15.903Z,6.50
2018-02-09T21:27:46.427Z,6.50
2018-02-09T21:30:17.156Z,6.50
2018-02-09T21:32:47.142Z,6.60
2018-02-09T21:35:15.626Z,6.60
2018-02-09T21:37:44.936Z,6.80
2018-02-09T21:40:13.493Z,6.90
2018-02-09T21:42:42.605Z,7.00
2018-02-09T21:45:12.252Z,6.90
2018-02-09T21:47:41.325Z,6.90
2018-02-09T21:50:09.893Z,7.00
2018-02-09T21:52:40.784Z,7.00
2018-02-09T21:55:24.794Z,7.10
2018-02-09T21:57:54.095Z,7.20
2018-02-09T22:00:23.381Z,7.10
2018-02-09T22:02:53.396Z,7.10
2018-02-09T22:05:36.313Z,7.00
2018-02-09T22:08:04.733Z,6.80
2018-02-09T22:10:34.292Z,6.80
2018-02-09T22:13:02.894Z,6.80
2018-02-09T22:15:34.141Z,6.90
2018-02-09T22:18:02.977Z,6.90
2018-02-09T22:20:31.826Z,7.00
2018-02-09T22:23:00.437Z,7.00
2018-02-09T22:25:28.972Z,6.90
2018-02-09T22:27:58.678Z,6.90
2018-02-09T22:30:27.157Z,6.90
2018-02-09T22:32:56.337Z,7.00
2018-02-09T22:35:24.939Z,7.00
2018-02-09T22:37:54.293Z,7.10
2018-02-09T22:40:23.407Z,6.80
2018-02-09T22:42:52.523Z,6.70
2018-02-09T22:45:21.018Z,6.70
2018-02-09T22:47:49.990Z,6.70
2018-02-09T22:50:18.355Z,6.70
2018-02-09T22:52:48.338Z,6.60
2018-02-09T22:55:17.422Z,6.60
2018-02-09T22:57:46.570Z,6.60
2018-02-09T23:00:16.823Z,6.60
2018-02-09T23:02:47.136Z,6.60
2018-02-09T23:05:16.985Z,6.70
2018-02-09T23:07:49.430Z,6.70
2018-02-09T23:10:19.348Z,6.60
2018-02-09T23:12:48.811Z,6.70
2018-02-09T23:15:18.654Z,6.60
2018-02-09T23:17:47.154Z,6.70
2018-02-09T23:20:16.795Z,6.70
2018-02-09T23:22:47.180Z,7.00
2018-02-09T23:25:16.477Z,7.20
2018-02-09T23:27:49.095Z,7.20
2018-02-09T23:30:19.451Z,7.40
2018-02-09T23:32:48.552Z,7.50
2018-02-09T23:35:16.985Z,7.50
2018-02-09T23:37:45.321Z,7.50
2018-02-09T23:40:16.748Z,7.40
2018-02-09T23:42:45.258Z,7.40
2018-02-09T23:45:13.740Z,7.30
2018-02-09T23:47:42.220Z,7.30
2018-02-09T23:50:10.662Z,7.30
2018-02-09T23:52:39.894Z,7.50
2018-02-09T23:55:08.382Z,7.40
2018-02-09T23:57:36.707Z,7.50
